Washington, DC (20261)

2:19 AM EDT on October 01, 2014 (GMT -0400)
H Street Corridor - NoMa | Change Station
CLOSE
Current Station
Personal Weather Station
Location: Washington, DC
Elevation: 56 ft
Nearby Weather Stations

Elev 56 ft 38.90 °N, 77.00 °W | Updated 5 seconds ago

Overcast
Overcast
65.7 °F
Feels Like 65.7 °F
N
1.0
Wind Variable Wind from ENE
Gusts 4.0 mph

Today
High -- | Low -- °F
--% Chance of Precip.
Yesterday
High -- | Low -- °F
Precip. -- in
7:03 AM 6:50 PM
Waxing Crescent, 44% visible
Pressure 29.96 in
Visibility 10.0 miles
Clouds Mostly Cloudy 1400 ft
Mostly Cloudy 2100 ft
Overcast 2600 ft
Dew Point 63 °F
Humidity 92%
Rainfall 0.00 in
Snow Depth Not available.
UV 0 out of 12
Pollen 2.90 out of 12
Air Quality Not available.
Flu Activity Not available.
METAR KDCA 010552Z 06007KT 10SM BKN014 BKN021 OVC026 21/17 A2996 RMK AO2 RAE49 SLP144 P0000 60000 T02060167 10222 20200 53002

More Conditions Fewer Conditions

Pressure 29.96 in
Visibility 10.0 miles
Clouds Mostly Cloudy 1400 ft
Mostly Cloudy 2100 ft
Overcast 2600 ft
Dew Point 63 °F
Humidity 92%
Rainfall 0.00 in
Snow Depth Not available.
UV 0 out of 12
Pollen 2.90 out of 12
Air Quality Not available.
Flu Activity Not available.
METAR KDCA 010552Z 06007KT 10SM BKN014 BKN021 OVC026 21/17 A2996 RMK AO2 RAE49 SLP144 P0000 60000 T02060167 10222 20200 53002

More Conditions Fewer Conditions

10-Day Weather Forecast

Almanac

Astronomy

Oct. 01, 2014 Rise Set
Actual Time 7:03 AM EDT 6:50 PM EDT
Civil Twilight 6:37 AM EDT 7:17 PM EDT
Nautical Twilight 6:06 AM EDT 7:48 PM EDT
Astronomical Twilight 5:35 AM EDT 8:19 PM EDT
Moon 2:00 PM EDT No Moon Set
Length of Visible Light 12h 39m
Length of Day
11h 46m
Tomorrow will be 2m 30s shorter.
Waxing Crescent, 44% of the Moon is Illuminated
Today
Waxing Crescent
Oct 1
First Quarter
Oct 8
Full
Oct 15
Last Quarter
Oct 23
New

Today's Extremes

State Highs State Lows

Community

WunderPhotos

Upload Photos

1,757,877 photos uploaded!

Nearby

Snow Depth

Station Depth Elevation
No new snow has been reported.

Earthquake Activity

City Distance Mag. Time & Date
No recent earthquake activity has been reported nearby.
Minimum magnitude displayed is 2.5.

Coastal Water Temperatures

Place Temperature
Washington, DC 71.1 °F
Baltimore, MD 75.0 °F
Solomons Island, MD 73.0 °F

Nearby Weather Stations